Time;durP1;ratioP1;P1;durP2;ratioP2;P2;SDS_P1;SDS_P2;PMS_P1;PMS_P2;Temp;Humidity;BMP_temperature;BMP_pressure;BME280_temperature;BME280_humidity;BME280_pressure;Samples;Min_cycle;Max_cycle;Signal;HPM_P1;HPM_P2
2023/07/10 00:00:11;;;;;;;3.70;3.40;;;19.90;87.60;;;;;;5103853;28;20457;-78
2023/07/10 00:02:38;;;;;;;3.50;3.17;;;19.90;86.50;;;;;;5102515;28;20471;-78
2023/07/10 00:05:13;;;;;;;4.83;3.70;;;19.90;85.90;;;;;;5097492;28;20458;-79
2023/07/10 00:07:40;;;;;;;3.70;3.33;;;19.90;86.00;;;;;;5103725;28;20454;-80
2023/07/10 00:10:08;;;;;;;3.23;3.03;;;19.80;85.20;;;;;;5099438;28;20459;-78
2023/07/10 00:12:35;;;;;;;7.40;3.83;;;19.90;84.80;;;;;;5096378;28;20867;-80
2023/07/10 00:15:09;;;;;;;6.47;3.77;;;19.80;85.50;;;;;;5103500;28;20949;-78
2023/07/10 00:17:35;;;;;;;4.20;3.20;;;19.70;86.50;;;;;;5100846;28;20455;-80
2023/07/10 00:20:10;;;;;;;4.20;3.73;;;19.60;86.10;;;;;;5103152;28;20925;-79
2023/07/10 00:22:37;;;;;;;3.77;3.40;;;19.60;85.40;;;;;;5109943;28;20450;-80
2023/07/10 00:25:04;;;;;;;3.97;3.67;;;19.60;85.10;;;;;;5099203;27;20516;-81
2023/07/10 00:27:31;;;;;;;4.00;3.60;;;19.60;84.90;;;;;;5104687;28;21005;-81
2023/07/10 00:29:58;;;;;;;4.03;2.80;;;19.60;86.60;;;;;;5102351;28;20622;-81
2023/07/10 00:32:25;;;;;;;4.10;3.10;;;19.40;89.90;;;;;;5110052;28;20442;-80
2023/07/10 00:34:52;;;;;;;3.60;3.30;;;19.30;90.30;;;;;;5103466;28;20458;-78
2023/07/10 00:37:21;;;;;;;6.17;4.30;;;19.20;91.10;;;;;;5100222;28;20450;-78
2023/07/10 00:39:48;;;;;;;5.27;3.50;;;19.20;90.30;;;;;;5100815;28;20971;-78
2023/07/10 00:42:18;;;;;;;3.20;2.90;;;19.20;89.70;;;;;;5101103;28;21095;-79
2023/07/10 00:44:51;;;;;;;7.60;3.80;;;19.20;90.40;;;;;;5103851;28;20462;-80
2023/07/10 00:47:27;;;;;;;4.63;3.20;;;19.10;90.40;;;;;;5103960;28;20446;-78
2023/07/10 00:50:01;;;;;;;4.00;2.97;;;19.10;90.70;;;;;;5098857;28;20534;-78
2023/07/10 00:52:34;;;;;;;2.87;2.57;;;18.90;91.30;;;;;;5099557;28;20447;-80
2023/07/10 00:55:03;;;;;;;4.90;3.10;;;18.80;91.70;;;;;;5102411;28;20446;-79
2023/07/10 00:57:35;;;;;;;4.17;3.30;;;18.80;92.40;;;;;;5100416;28;20527;-79
2023/07/10 01:00:13;;;;;;;6.00;4.13;;;18.80;92.60;;;;;;5104464;28;20448;-80
2023/07/10 01:02:40;;;;;;;3.10;2.80;;;18.80;92.80;;;;;;5101279;28;20515;-79
2023/07/10 01:05:07;;;;;;;5.53;3.47;;;18.70;93.20;;;;;;5095354;28;20449;-79
2023/07/10 01:07:41;;;;;;;5.17;2.63;;;18.60;93.50;;;;;;5105687;28;20638;-80
2023/07/10 01:10:10;;;;;;;3.40;2.93;;;18.50;93.40;;;;;;5107188;28;20586;-79
2023/07/10 01:12:39;;;;;;;4.03;3.57;;;18.50;93.60;;;;;;5097476;28;20462;-78
2023/07/10 01:15:08;;;;;;;3.47;3.13;;;18.60;94.60;;;;;;5101721;27;20454;-80
2023/07/10 01:17:35;;;;;;;4.80;3.23;;;18.50;95.10;;;;;;5106895;28;20502;-79
2023/07/10 01:20:20;;;;;;;4.47;3.73;;;18.50;95.10;;;;;;5096671;28;20471;-81
2023/07/10 01:22:48;;;;;;;4.37;3.53;;;18.70;95.40;;;;;;5112243;27;20468;-80
2023/07/10 01:25:15;;;;;;;4.97;4.07;;;18.50;95.70;;;;;;5094104;28;20462;-80
2023/07/10 01:27:42;;;;;;;4.67;4.27;;;18.40;96.10;;;;;;5107027;28;20455;-79
2023/07/10 01:30:30;;;;;;;4.47;4.07;;;18.30;96.80;;;;;;5103563;27;20923;-78
2023/07/10 01:32:57;;;;;;;6.40;4.43;;;18.30;97.60;;;;;;5109458;27;20456;-78
2023/07/10 01:35:26;;;;;;;5.13;4.00;;;18.40;97.40;;;;;;5100990;28;20455;-79
2023/07/10 01:37:55;;;;;;;4.90;4.33;;;18.50;97.40;;;;;;5098344;28;20449;-80
2023/07/10 01:40:30;;;;;;;6.00;3.97;;;18.60;97.20;;;;;;5107467;28;20454;-79
2023/07/10 01:42:58;;;;;;;4.23;3.57;;;18.60;96.50;;;;;;5089473;28;20459;-79
2023/07/10 01:45:26;;;;;;;9.40;3.73;;;18.50;97.20;;;;;;5098613;27;20473;-81
2023/07/10 01:47:54;;;;;;;5.13;3.97;;;18.50;97.10;;;;;;5110171;27;20457;-81
2023/07/10 01:50:22;;;;;;;4.23;3.83;;;18.50;97.40;;;;;;5106142;28;20491;-81
2023/07/10 01:52:49;;;;;;;6.50;3.63;;;18.40;97.40;;;;;;5100441;28;20456;-80
2023/07/10 01:55:20;;;;;;;4.90;3.57;;;18.50;97.50;;;;;;5107411;28;20481;-81
2023/07/10 01:57:47;;;;;;;5.30;3.20;;;18.50;97.70;;;;;;5104732;28;20934;-80
2023/07/10 02:00:15;;;;;;;4.77;3.20;;;18.50;97.60;;;;;;5115378;27;20646;-78
2023/07/10 02:02:42;;;;;;;3.30;3.00;;;18.50;98.10;;;;;;5103119;28;20519;-79
2023/07/10 02:05:10;;;;;;;3.93;3.37;;;18.50;97.80;;;;;;5103896;28;20921;-79
2023/07/10 02:07:37;;;;;;;4.70;3.83;;;18.50;97.70;;;;;;5106889;27;21013;-80
2023/07/10 02:10:04;;;;;;;4.40;3.60;;;18.40;97.90;;;;;;5106971;28;20531;-79
2023/07/10 02:12:32;;;;;;;4.67;4.23;;;18.40;97.50;;;;;;5095713;28;20458;-79
2023/07/10 02:14:59;;;;;;;4.40;3.63;;;18.10;98.70;;;;;;5102536;28;20453;-81
2023/07/10 02:17:26;;;;;;;3.57;3.27;;;18.00;99.60;;;;;;5096453;28;20452;-80
2023/07/10 02:19:53;;;;;;;3.87;3.43;;;17.90;99.90;;;;;;5106227;28;20522;-80
2023/07/10 02:22:20;;;;;;;4.37;3.97;;;17.80;99.90;;;;;;5102655;28;21078;-79
2023/07/10 02:24:47;;;;;;;5.03;3.93;;;17.80;99.90;;;;;;5103763;27;21009;-78
2023/07/10 02:27:14;;;;;;;3.80;3.50;;;17.70;99.90;;;;;;5101047;28;20443;-81
2023/07/10 02:29:43;;;;;;;4.00;3.70;;;17.60;99.90;;;;;;5101484;27;20490;-80
2023/07/10 02:32:10;;;;;;;4.37;3.97;;;17.50;99.90;;;;;;5107664;28;20864;-79
2023/07/10 02:34:36;;;;;;;3.63;3.33;;;17.50;99.90;;;;;;5105726;28;20532;-81
2023/07/10 02:37:04;;;;;;;4.60;3.97;;;17.40;99.90;;;;;;5108579;28;20518;-80
2023/07/10 02:39:31;;;;;;;6.20;4.47;;;17.40;99.90;;;;;;5105695;28;20455;-79
2023/07/10 02:41:58;;;;;;;3.93;3.53;;;17.40;99.90;;;;;;5103719;28;20452;-79
2023/07/10 02:44:25;;;;;;;3.73;2.70;;;17.40;99.90;;;;;;5105281;28;20454;-81
2023/07/10 02:46:53;;;;;;;4.67;4.30;;;17.40;99.90;;;;;;5098368;27;20452;-79
2023/07/10 02:49:20;;;;;;;3.90;3.60;;;17.30;99.90;;;;;;5101901;28;20575;-81
2023/07/10 02:51:47;;;;;;;4.47;3.70;;;17.30;99.90;;;;;;5095184;28;20872;-78
2023/07/10 02:54:14;;;;;;;5.13;3.60;;;17.20;99.90;;;;;;5100863;28;20481;-80
2023/07/10 02:56:41;;;;;;;4.20;3.77;;;17.20;99.90;;;;;;5096433;28;20493;-79
2023/07/10 02:59:08;;;;;;;4.97;4.50;;;17.20;99.90;;;;;;5106904;28;20515;-80
2023/07/10 03:01:35;;;;;;;4.67;4.27;;;17.20;99.90;;;;;;5101894;27;20463;-81
2023/07/10 03:04:04;;;;;;;6.50;3.57;;;17.20;99.90;;;;;;5106250;28;20957;-80
2023/07/10 03:06:31;;;;;;;4.30;3.60;;;17.10;99.90;;;;;;5103472;27;21302;-82
2023/07/10 03:08:58;;;;;;;3.80;3.50;;;17.00;99.90;;;;;;5105162;28;20558;-79
2023/07/10 03:11:25;;;;;;;4.60;4.20;;;16.90;99.90;;;;;;5102944;28;20914;-81
2023/07/10 03:13:54;;;;;;;3.93;3.63;;;16.90;99.90;;;;;;5106839;28;20454;-80
2023/07/10 03:16:21;;;;;;;4.50;3.77;;;16.90;99.90;;;;;;5092823;27;20469;-79
2023/07/10 03:18:48;;;;;;;8.53;5.00;;;17.00;99.90;;;;;;5101094;28;20608;-79
2023/07/10 03:21:16;;;;;;;5.77;3.90;;;16.90;99.90;;;;;;5092412;28;20468;-79
2023/07/10 03:23:45;;;;;;;5.40;4.47;;;16.90;99.90;;;;;;5101356;28;20452;-79
2023/07/10 03:26:12;;;;;;;3.70;3.40;;;16.90;99.90;;;;;;5103870;28;20933;-80
2023/07/10 03:28:39;;;;;;;3.80;3.50;;;17.00;99.90;;;;;;5098921;28;20512;-80
2023/07/10 03:31:07;;;;;;;5.03;4.53;;;17.10;99.90;;;;;;5102327;27;20494;-80
2023/07/10 03:33:35;;;;;;;5.20;3.80;;;17.30;99.90;;;;;;5101775;28;21002;-79
2023/07/10 03:36:04;;;;;;;4.97;4.43;;;17.40;99.90;;;;;;5103588;28;20496;-81
2023/07/10 03:38:32;;;;;;;6.60;4.47;;;17.50;99.90;;;;;;5107704;28;20502;-78
2023/07/10 03:41:00;;;;;;;4.90;3.93;;;17.50;99.90;;;;;;5106062;28;20450;-81
2023/07/10 03:43:28;;;;;;;4.43;4.03;;;17.50;99.90;;;;;;5094146;28;20979;-78
2023/07/10 03:45:56;;;;;;;6.47;3.93;;;17.50;99.90;;;;;;5106523;27;20998;-77
2023/07/10 03:48:23;;;;;;;5.33;4.50;;;17.40;99.90;;;;;;5103879;27;20534;-78
2023/07/10 03:50:50;;;;;;;4.13;3.73;;;17.30;99.90;;;;;;5096787;28;20979;-78
2023/07/10 03:53:17;;;;;;;4.90;3.80;;;17.30;99.90;;;;;;5092596;28;20502;-80
2023/07/10 03:55:52;;;;;;;4.57;3.23;;;17.20;99.90;;;;;;5104011;28;20497;-79
2023/07/10 03:58:22;;;;;;;5.27;3.83;;;17.20;99.90;;;;;;5102737;28;20865;-79
2023/07/10 04:00:50;;;;;;;4.03;3.63;;;17.30;99.90;;;;;;5101368;28;21014;-78
2023/07/10 04:03:17;;;;;;;4.43;3.93;;;17.40;99.90;;;;;;5106125;28;20889;-77
2023/07/10 04:05:49;;;;;;;4.70;3.90;;;17.50;99.90;;;;;;5102885;28;20464;-80
2023/07/10 04:08:16;;;;;;;3.73;3.43;;;17.40;99.90;;;;;;5101413;28;20988;-79
2023/07/10 04:10:51;;;;;;;4.97;3.37;;;17.40;99.90;;;;;;5103076;28;20540;-78
2023/07/10 04:13:18;;;;;;;4.73;4.33;;;17.50;99.90;;;;;;5103167;28;20441;-80
2023/07/10 04:15:56;;;;;;;4.77;4.07;;;17.40;99.90;;;;;;5111134;27;20503;-77
2023/07/10 04:18:23;;;;;;;3.53;3.23;;;17.50;99.90;;;;;;5108236;28;20453;-78
2023/07/10 04:20:50;;;;;;;6.80;4.20;;;17.40;99.90;;;;;;5100186;28;20470;-81
2023/07/10 04:23:18;;;;;;;4.57;4.10;;;17.30;99.90;;;;;;5104907;28;20438;-80
2023/07/10 04:25:46;;;;;;;3.87;3.57;;;17.20;99.90;;;;;;5099410;28;20783;-80
2023/07/10 04:28:14;;;;;;;3.87;3.50;;;17.20;99.90;;;;;;5103257;28;20457;-79
2023/07/10 04:30:41;;;;;;;6.67;4.47;;;17.40;99.90;;;;;;5102038;28;20557;-81
2023/07/10 04:33:11;;;;;;;4.37;3.97;;;17.50;99.90;;;;;;5117265;28;20492;-80
2023/07/10 04:35:39;;;;;;;6.33;4.60;;;17.70;99.90;;;;;;5091245;28;20470;-81
2023/07/10 04:38:06;;;;;;;5.50;3.87;;;18.00;99.90;;;;;;5100852;28;20442;-80
2023/07/10 04:40:33;;;;;;;5.87;4.87;;;18.20;99.90;;;;;;5102624;28;20482;-79
2023/07/10 04:43:02;;;;;;;6.77;3.90;;;18.50;99.90;;;;;;5109583;28;20446;-81
2023/07/10 04:45:30;;;;;;;5.97;5.37;;;18.60;99.90;;;;;;5109158;27;21018;-79
2023/07/10 04:47:58;;;;;;;9.70;7.90;;;18.60;99.70;;;;;;5115024;27;20911;-79
2023/07/10 04:50:25;;;;;;;6.00;5.40;;;18.90;99.10;;;;;;5104336;28;20487;-79
2023/07/10 04:52:51;;;;;;;5.77;5.27;;;19.10;99.20;;;;;;5104555;28;20458;-81
2023/07/10 04:55:18;;;;;;;9.00;4.07;;;19.10;98.20;;;;;;5110645;28;20450;-80
2023/07/10 04:57:45;;;;;;;9.73;5.60;;;19.10;99.00;;;;;;5104762;27;20466;-81
2023/07/10 05:00:14;;;;;;;5.47;5.00;;;19.20;98.60;;;;;;5101348;28;20474;-81
2023/07/10 05:02:42;;;;;;;6.57;5.47;;;19.40;98.20;;;;;;5098595;28;20588;-80
2023/07/10 05:05:09;;;;;;;5.80;4.13;;;19.50;97.80;;;;;;5097072;28;21013;-80
2023/07/10 05:07:36;;;;;;;4.00;3.60;;;19.50;97.50;;;;;;5082067;28;20609;-80
2023/07/10 05:10:04;;;;;;;5.20;3.70;;;19.80;96.80;;;;;;5084013;28;20493;-79
2023/07/10 05:12:30;;;;;;;5.10;4.13;;;19.90;96.80;;;;;;5082543;28;20465;-81
2023/07/10 05:14:57;;;;;;;4.43;4.03;;;20.00;96.70;;;;;;5087776;27;20529;-81
2023/07/10 05:17:24;;;;;;;5.10;3.70;;;20.20;96.20;;;;;;5107480;27;20466;-80
2023/07/10 05:19:53;;;;;;;5.27;4.03;;;20.30;95.40;;;;;;5107008;28;20510;-79
2023/07/10 05:22:20;;;;;;;3.90;3.13;;;20.30;95.10;;;;;;5103619;28;20492;-81
2023/07/10 05:24:48;;;;;;;6.70;4.50;;;20.50;94.60;;;;;;5101089;28;20551;-81
2023/07/10 05:27:15;;;;;;;3.17;2.90;;;20.50;95.40;;;;;;5096793;28;20477;-82
2023/07/10 05:29:42;;;;;;;4.57;3.53;;;20.80;95.00;;;;;;5105306;27;20482;-80
2023/07/10 05:32:09;;;;;;;6.30;3.13;;;21.00;94.40;;;;;;5108227;27;20466;-81
2023/07/10 05:34:36;;;;;;;4.70;3.83;;;21.20;94.00;;;;;;5104148;28;20493;-80
2023/07/10 05:37:06;;;;;;;4.47;3.70;;;21.30;93.70;;;;;;5121065;28;20468;-81
2023/07/10 05:39:33;;;;;;;5.03;3.87;;;21.30;94.10;;;;;;5110265;28;20450;-80
2023/07/10 05:42:00;;;;;;;6.00;4.40;;;21.40;94.30;;;;;;5108958;28;20473;-77
2023/07/10 05:44:27;;;;;;;4.83;4.10;;;21.50;93.60;;;;;;5111965;28;20454;-78
2023/07/10 05:46:55;;;;;;;5.40;4.50;;;21.70;93.50;;;;;;5110822;27;20470;-79
2023/07/10 05:49:24;;;;;;;5.20;4.27;;;22.00;92.90;;;;;;5105828;28;20539;-79
2023/07/10 05:51:51;;;;;;;5.47;4.23;;;21.90;92.50;;;;;;5108311;28;20485;-78
2023/07/10 05:54:20;;;;;;;3.97;3.67;;;22.00;92.30;;;;;;5102484;28;20511;-77
2023/07/10 05:56:47;;;;;;;4.17;3.77;;;22.20;91.90;;;;;;5099219;28;20831;-79
2023/07/10 05:59:15;;;;;;;6.73;4.00;;;22.40;92.00;;;;;;5096657;27;20925;-79
2023/07/10 06:01:42;;;;;;;5.90;4.60;;;22.80;90.80;;;;;;5100131;28;21367;-79
2023/07/10 06:04:09;;;;;;;4.90;4.27;;;22.80;89.10;;;;;;5098876;28;20494;-79
2023/07/10 06:06:36;;;;;;;4.70;4.20;;;22.90;86.90;;;;;;5100773;28;20486;-77
2023/07/10 06:09:03;;;;;;;7.83;4.60;;;23.10;84.80;;;;;;5105623;28;21124;-77
2023/07/10 06:11:32;;;;;;;7.10;4.40;;;23.10;84.40;;;;;;5093856;28;20506;-78
2023/07/10 06:13:59;;;;;;;4.33;3.97;;;23.20;81.40;;;;;;5107163;28;20439;-78
2023/07/10 06:16:26;;;;;;;5.40;5.00;;;23.40;83.10;;;;;;5105777;28;20522;-80
2023/07/10 06:18:53;;;;;;;4.97;4.47;;;23.50;81.60;;;;;;5104126;28;20541;-80
2023/07/10 06:21:20;;;;;;;5.03;4.60;;;23.70;81.20;;;;;;5107874;28;20443;-81
2023/07/10 06:23:47;;;;;;;5.73;3.90;;;23.60;77.50;;;;;;5106268;28;20456;-79
2023/07/10 06:26:13;;;;;;;4.63;3.30;;;23.60;80.00;;;;;;5103129;28;21336;-82
2023/07/10 06:28:42;;;;;;;3.90;3.53;;;24.00;76.10;;;;;;5100902;27;20862;-78
2023/07/10 06:31:11;;;;;;;5.67;4.80;;;24.10;73.30;;;;;;5105758;28;20555;-79
2023/07/10 06:33:39;;;;;;;4.60;3.50;;;24.50;73.20;;;;;;5098223;27;20461;-81
2023/07/10 06:36:06;;;;;;;5.77;4.37;;;24.80;69.30;;;;;;5098929;28;20467;-79
2023/07/10 06:38:34;;;;;;;10.10;4.30;;;24.70;72.00;;;;;;5104413;28;20443;-81
2023/07/10 06:41:01;;;;;;;9.40;4.50;;;25.20;67.80;;;;;;5098989;27;20446;-81
2023/07/10 06:43:28;;;;;;;3.73;3.43;;;25.50;69.90;;;;;;5106384;28;21022;-79
2023/07/10 06:45:57;;;;;;;4.37;3.60;;;25.70;64.70;;;;;;5097767;27;20997;-80
2023/07/10 06:48:24;;;;;;;8.33;4.27;;;25.70;63.20;;;;;;5106741;28;20515;-82
2023/07/10 06:50:52;;;;;;;4.23;3.80;;;26.10;62.00;;;;;;5098495;28;20547;-79
2023/07/10 06:53:22;;;;;;;4.30;3.90;;;26.00;59.40;;;;;;5095397;27;20465;-80
2023/07/10 06:55:53;;;;;;;4.97;4.37;;;26.20;61.90;;;;;;5106234;28;20918;-82
2023/07/10 06:58:20;;;;;;;4.13;3.70;;;26.40;61.60;;;;;;5104222;27;21237;-82
2023/07/10 07:00:47;;;;;;;4.90;4.10;;;26.40;59.20;;;;;;5113715;27;21213;-86
2023/07/10 07:03:16;;;;;;;5.60;4.77;;;26.40;58.90;;;;;;5116507;28;20555;-80
2023/07/10 07:05:43;;;;;;;5.60;3.60;;;26.30;58.90;;;;;;5114742;28;21008;-79
2023/07/10 07:08:10;;;;;;;4.63;4.20;;;26.30;59.40;;;;;;5113393;28;20499;-81
2023/07/10 07:10:41;;;;;;;4.30;4.00;;;26.30;57.30;;;;;;5104689;28;20496;-80
2023/07/10 07:13:08;;;;;;;8.00;4.50;;;26.40;58.30;;;;;;5105758;28;20446;-83
2023/07/10 07:15:35;;;;;;;4.30;3.67;;;26.40;54.90;;;;;;5103776;28;21109;-81
2023/07/10 07:18:03;;;;;;;4.93;3.53;;;26.50;57.40;;;;;;5106045;28;20880;-82
2023/07/10 07:20:32;;;;;;;5.23;4.57;;;26.80;57.00;;;;;;5104516;28;20488;-79
2023/07/10 07:22:59;;;;;;;5.37;4.87;;;26.80;55.50;;;;;;5105388;28;20447;-79
2023/07/10 07:25:26;;;;;;;5.97;5.07;;;27.10;54.10;;;;;;5104518;28;20472;-80
2023/07/10 07:27:53;;;;;;;9.63;5.17;;;27.10;51.90;;;;;;5101234;28;20869;-80
2023/07/10 07:30:20;;;;;;;5.90;4.10;;;27.10;51.40;;;;;;5098919;28;20478;-80
2023/07/10 07:32:49;;;;;;;5.50;5.00;;;27.40;51.20;;;;;;5093740;28;20448;-82
2023/07/10 07:35:16;;;;;;;5.87;4.60;;;27.30;50.70;;;;;;5097385;28;20467;-80
2023/07/10 07:37:45;;;;;;;9.00;4.17;;;27.50;51.00;;;;;;5103538;28;20441;-80
2023/07/10 07:40:16;;;;;;;5.77;4.60;;;27.80;53.10;;;;;;5095279;28;20518;-82
2023/07/10 07:42:43;;;;;;;4.87;4.40;;;28.00;48.60;;;;;;5101481;27;20926;-80
2023/07/10 07:45:11;;;;;;;4.10;3.57;;;28.00;47.20;;;;;;5099971;27;20527;-79
2023/07/10 07:47:40;;;;;;;5.80;4.70;;;28.20;48.10;;;;;;5104526;27;20545;-81
2023/07/10 07:50:08;;;;;;;9.00;4.13;;;28.00;45.70;;;;;;5101788;28;20446;-80
2023/07/10 07:52:35;;;;;;;6.50;4.37;;;28.60;47.00;;;;;;5089542;27;20457;-80
2023/07/10 07:55:04;;;;;;;4.67;3.97;;;28.80;45.20;;;;;;5100642;28;20488;-80
2023/07/10 07:57:32;;;;;;;5.83;4.13;;;28.60;43.10;;;;;;5100483;28;20510;-79
2023/07/10 08:00:00;;;;;;;5.43;4.60;;;28.70;42.00;;;;;;5102852;28;20454;-80
2023/07/10 08:02:27;;;;;;;6.13;5.03;;;28.90;43.00;;;;;;5098534;28;20584;-80
2023/07/10 08:04:54;;;;;;;9.40;4.67;;;29.30;42.00;;;;;;5103905;28;20531;-79
2023/07/10 08:07:21;;;;;;;5.57;4.63;;;29.50;40.60;;;;;;5105467;28;20449;-80
2023/07/10 08:09:48;;;;;;;5.60;5.07;;;29.80;42.80;;;;;;5104800;28;20522;-80
2023/07/10 08:12:16;;;;;;;5.77;4.53;;;29.90;39.00;;;;;;5104245;27;20550;-80
2023/07/10 08:14:43;;;;;;;4.87;4.47;;;29.80;40.40;;;;;;5100672;28;20455;-82
2023/07/10 08:17:11;;;;;;;5.27;4.80;;;29.90;42.70;;;;;;5100402;27;20906;-79
2023/07/10 08:19:38;;;;;;;4.80;4.50;;;29.60;39.50;;;;;;5098668;28;20459;-81
2023/07/10 08:22:05;;;;;;;5.70;5.10;;;29.90;41.90;;;;;;5096186;28;20498;-82
2023/07/10 08:24:32;;;;;;;5.50;5.00;;;30.50;41.00;;;;;;5111924;27;20476;-82
2023/07/10 08:26:59;;;;;;;6.30;5.70;;;30.40;39.10;;;;;;5111337;28;20519;-81
2023/07/10 08:29:29;;;;;;;7.97;5.17;;;29.90;38.00;;;;;;5101450;28;20480;-80
2023/07/10 08:31:57;;;;;;;4.73;4.43;;;29.70;41.70;;;;;;5106289;28;20632;-83
2023/07/10 08:34:25;;;;;;;4.53;4.13;;;30.10;40.70;;;;;;5105767;28;20442;-82
2023/07/10 08:36:53;;;;;;;5.37;4.87;;;29.90;41.90;;;;;;5102819;28;20443;-79
2023/07/10 08:39:20;;;;;;;5.63;5.10;;;29.90;39.90;;;;;;5103058;28;20471;-79
2023/07/10 08:41:51;;;;;;;6.17;5.53;;;29.60;38.70;;;;;;5098343;28;20534;-82
2023/07/10 08:44:18;;;;;;;4.73;4.43;;;29.60;38.90;;;;;;5089225;28;20959;-79
2023/07/10 08:46:48;;;;;;;5.03;4.60;;;29.80;39.40;;;;;;5101765;28;20956;-79
2023/07/10 08:49:20;;;;;;;6.70;4.40;;;30.10;38.70;;;;;;5093424;28;20455;-80
2023/07/10 08:51:56;;;;;;;4.40;4.00;;;30.40;38.90;;;;;;5095223;28;20490;-79
2023/07/10 08:54:24;;;;;;;6.83;4.97;;;30.50;38.20;;;;;;5095720;28;20459;-78
2023/07/10 08:57:03;;;;;;;5.53;4.83;;;30.90;38.60;;;;;;5101732;28;20507;-77
2023/07/10 08:59:45;;;;;;;11.20;4.90;;;31.30;37.70;;;;;;5091932;28;21095;-79
2023/07/10 09:02:34;;;;;;;5.20;4.70;;;31.70;37.50;;;;;;5096821;28;20450;-79
2023/07/10 09:05:05;;;;;;;9.03;5.27;;;31.50;36.00;;;;;;5090477;28;20444;-78
2023/07/10 09:07:37;;;;;;;11.10;4.70;;;31.90;35.20;;;;;;5099580;28;20902;-79
2023/07/10 09:10:08;;;;;;;5.40;5.00;;;31.70;33.00;;;;;;5105142;28;20451;-80
2023/07/10 09:12:40;;;;;;;4.70;4.40;;;31.70;33.20;;;;;;5102998;28;20517;-79
2023/07/10 09:15:12;;;;;;;5.10;4.70;;;31.90;33.20;;;;;;5093502;28;20477;-81
2023/07/10 09:17:54;;;;;;;5.57;5.07;;;31.80;31.20;;;;;;5100134;28;20452;-76
2023/07/10 09:20:24;;;;;;;5.00;4.60;;;31.40;31.20;;;;;;5096243;28;21076;-81
2023/07/10 09:22:56;;;;;;;4.57;4.00;;;31.50;31.10;;;;;;5102212;28;21160;-77
2023/07/10 09:25:23;;;;;;;4.73;3.87;;;31.40;32.90;;;;;;5101961;28;20462;-81
2023/07/10 09:27:50;;;;;;;4.27;3.87;;;31.40;32.30;;;;;;5104721;27;20537;-79
2023/07/10 09:30:35;;;;;;;5.63;4.80;;;31.70;33.50;;;;;;5107728;28;20452;-79
2023/07/10 09:33:08;;;;;;;4.93;4.10;;;32.00;31.30;;;;;;5106450;27;20489;-81
2023/07/10 09:35:37;;;;;;;7.40;3.50;;;32.30;32.10;;;;;;5102529;28;20453;-82
2023/07/10 09:38:04;;;;;;;4.47;4.17;;;32.70;31.20;;;;;;5104564;28;20466;-82
2023/07/10 09:40:39;;;;;;;4.60;3.83;;;32.70;30.40;;;;;;5107939;27;20454;-81
2023/07/10 09:43:13;;;;;;;4.50;4.10;;;33.10;30.50;;;;;;5107536;28;20478;-82
2023/07/10 09:45:44;;;;;;;4.07;3.77;;;33.20;29.40;;;;;;5108882;27;20469;-80
2023/07/10 09:48:18;;;;;;;5.20;4.80;;;33.30;29.80;;;;;;5115718;28;20458;-79
2023/07/10 09:50:49;;;;;;;7.57;4.83;;;33.00;27.60;;;;;;5106167;28;20458;-78
2023/07/10 09:53:32;;;;;;;6.77;5.73;;;32.80;27.50;;;;;;5109783;28;20459;-81
2023/07/10 09:56:00;;;;;;;5.47;4.97;;;33.20;27.70;;;;;;5096787;28;20535;-81
2023/07/10 09:58:27;;;;;;;4.40;4.10;;;33.50;29.40;;;;;;5106459;28;20465;-78
2023/07/10 10:00:54;;;;;;;4.40;3.53;;;33.60;28.00;;;;;;5102887;28;20478;-80
2023/07/10 10:03:27;;;;;;;4.03;3.73;;;33.60;27.60;;;;;;5105441;28;20513;-83
2023/07/10 10:05:56;;;;;;;4.40;4.00;;;33.40;27.30;;;;;;5108508;28;20458;-79
2023/07/10 10:08:26;;;;;;;4.60;4.20;;;33.50;27.90;;;;;;5106283;28;20498;-79
2023/07/10 10:11:05;;;;;;;4.07;3.67;;;33.80;25.80;;;;;;5102445;28;20516;-82
2023/07/10 10:13:38;;;;;;;6.40;4.33;;;34.00;25.70;;;;;;5097628;28;20478;-81
2023/07/10 10:16:11;;;;;;;6.17;4.10;;;34.20;25.50;;;;;;5100252;28;20660;-82
2023/07/10 10:18:43;;;;;;;5.10;3.63;;;34.30;25.60;;;;;;5104260;28;20467;-80
2023/07/10 10:21:13;;;;;;;6.47;5.00;;;34.20;23.60;;;;;;5103577;28;20462;-80
2023/07/10 10:23:43;;;;;;;5.70;5.20;;;34.20;25.20;;;;;;5107972;28;20439;-82
2023/07/10 10:26:27;;;;;;;5.00;4.00;;;34.40;24.80;;;;;;5101468;28;20568;-82
2023/07/10 10:29:07;;;;;;;4.20;3.80;;;34.40;19.50;;;;;;5104424;27;20443;-81
2023/07/10 10:31:39;;;;;;;3.73;3.30;;;33.80;22.20;;;;;;5104696;27;20486;-82
2023/07/10 10:34:20;;;;;;;3.93;3.60;;;33.90;22.90;;;;;;5103210;27;20549;-82
2023/07/10 10:36:59;;;;;;;4.97;3.90;;;33.90;23.00;;;;;;5104235;28;20462;-80
2023/07/10 10:39:36;;;;;;;4.33;3.60;;;33.90;21.30;;;;;;5106253;27;20499;-81
2023/07/10 10:42:12;;;;;;;3.53;3.23;;;33.60;20.00;;;;;;5098427;28;20501;-81
2023/07/10 10:44:49;;;;;;;5.30;4.83;;;33.50;20.90;;;;;;5107313;28;20438;-83
2023/07/10 10:47:35;;;;;;;3.07;2.87;;;33.80;22.10;;;;;;5104605;28;20458;-81
2023/07/10 10:50:16;;;;;;;4.50;3.47;;;33.90;19.20;;;;;;5103681;28;20549;-80
2023/07/10 10:52:54;;;;;;;3.60;3.40;;;34.10;20.40;;;;;;5102086;28;20481;-81
2023/07/10 10:55:34;;;;;;;4.70;4.30;;;34.50;19.30;;;;;;5109240;27;20446;-80
2023/07/10 10:58:19;;;;;;;4.00;3.70;;;34.20;18.90;;;;;;5096761;28;20447;-82
2023/07/10 11:01:15;;;;;;;5.00;4.30;;;34.00;18.80;;;;;;5095508;27;20462;-81
2023/07/10 11:03:46;;;;;;;5.53;5.00;;;33.80;21.60;;;;;;5096540;28;20981;-82
2023/07/10 11:06:38;;;;;;;5.70;4.10;;;34.10;22.00;;;;;;5091318;28;20906;-80
2023/07/10 11:09:11;;;;;;;4.60;4.20;;;34.60;20.70;;;;;;5113436;28;20450;-78
2023/07/10 11:11:41;;;;;;;5.70;3.97;;;34.80;21.50;;;;;;5116630;28;21244;-77
2023/07/10 11:14:09;;;;;;;6.70;5.10;;;34.90;20.50;;;;;;5114775;28;21180;-78
2023/07/10 11:16:37;;;;;;;4.43;4.03;;;35.10;21.20;;;;;;5100570;27;20467;-78
2023/07/10 11:19:05;;;;;;;5.77;4.23;;;35.40;20.90;;;;;;5101913;28;20462;-79
2023/07/10 11:21:34;;;;;;;4.30;3.90;;;35.70;19.00;;;;;;5097350;27;20464;-80
2023/07/10 11:24:16;;;;;;;4.87;4.37;;;35.50;17.20;;;;;;5100449;28;20447;-78
2023/07/10 11:26:43;;;;;;;4.70;4.20;;;35.20;18.20;;;;;;5105056;28;20454;-79
2023/07/10 11:29:29;;;;;;;6.00;5.37;;;34.70;19.50;;;;;;5099133;27;21186;-78
2023/07/10 11:31:59;;;;;;;4.90;4.50;;;33.80;21.00;;;;;;5105935;28;20485;-80
2023/07/10 11:34:54;;;;;;;7.47;6.70;;;33.40;23.80;;;;;;5097313;28;20496;-79
2023/07/10 11:37:54;;;;;;;5.50;4.70;;;32.70;27.20;;;;;;5091704;28;20729;-77
2023/07/10 11:40:57;;;;;;;4.40;4.00;;;32.00;27.50;;;;;;5096400;28;20482;-77
2023/07/10 11:44:11;;;;;;;4.07;3.40;;;31.00;26.90;;;;;;5099812;28;20461;-79
2023/07/10 11:47:17;;;;;;;3.63;3.33;;;30.50;28.40;;;;;;5100957;27;20470;-79
2023/07/10 11:49:46;;;;;;;10.10;4.50;;;30.40;28.70;;;;;;5104008;28;21001;-78
2023/07/10 11:52:28;;;;;;;5.70;4.13;;;30.30;28.20;;;;;;5096607;28;21099;-81
2023/07/10 11:55:12;;;;;;;3.90;3.60;;;30.20;28.10;;;;;;5103242;27;20461;-80
2023/07/10 11:57:39;;;;;;;4.93;4.50;;;30.30;28.90;;;;;;5104877;28;20507;-81
2023/07/10 12:00:24;;;;;;;3.50;3.20;;;30.20;27.50;;;;;;5105945;28;20945;-79
2023/07/10 12:02:54;;;;;;;6.70;3.73;;;29.90;27.70;;;;;;5101487;28;20554;-80
2023/07/10 12:05:23;;;;;;;4.93;4.53;;;29.90;28.30;;;;;;5102858;28;20928;-82
2023/07/10 12:07:52;;;;;;;7.70;5.30;;;29.80;29.10;;;;;;5100177;28;20466;-80
2023/07/10 12:10:19;;;;;;;7.37;6.70;;;29.60;28.80;;;;;;5105947;28;20461;-80
2023/07/10 12:12:46;;;;;;;4.60;4.30;;;29.60;28.90;;;;;;5102931;28;20485;-80
2023/07/10 12:15:14;;;;;;;5.93;3.80;;;29.50;29.50;;;;;;5106589;28;20452;-82
2023/07/10 12:17:42;;;;;;;4.87;4.27;;;29.30;30.00;;;;;;5102765;28;20522;-80
2023/07/10 12:20:24;;;;;;;3.70;3.07;;;29.40;30.10;;;;;;5104525;28;20450;-79
2023/07/10 12:22:53;;;;;;;4.03;3.70;;;29.30;30.00;;;;;;5098361;28;20462;-79
2023/07/10 12:25:22;;;;;;;5.17;3.90;;;29.50;30.10;;;;;;5097461;28;20539;-82
2023/07/10 12:27:49;;;;;;;3.73;3.30;;;29.50;30.20;;;;;;5100703;28;20462;-79
2023/07/10 12:30:23;;;;;;;5.23;3.40;;;29.60;30.60;;;;;;5113117;28;20445;-79
2023/07/10 12:32:52;;;;;;;3.77;3.47;;;29.80;31.90;;;;;;5113079;28;20565;-79
2023/07/10 12:35:29;;;;;;;5.80;4.70;;;30.30;31.70;;;;;;5107728;28;21032;-82
2023/07/10 12:37:58;;;;;;;4.13;3.70;;;30.30;30.70;;;;;;5106090;28;20454;-78
2023/07/10 12:40:26;;;;;;;5.53;4.43;;;30.30;31.80;;;;;;5102506;28;20489;-80
2023/07/10 12:42:53;;;;;;;6.30;4.50;;;30.20;32.90;;;;;;5097981;28;20466;-78
2023/07/10 12:45:32;;;;;;;3.90;3.57;;;30.30;33.00;;;;;;5103463;28;20454;-79
2023/07/10 12:48:08;;;;;;;8.93;4.10;;;30.20;32.40;;;;;;5091637;28;20462;-78
2023/07/10 12:50:41;;;;;;;4.17;3.77;;;30.20;32.80;;;;;;5105052;28;20453;-81
2023/07/10 12:53:18;;;;;;;4.00;3.57;;;30.10;32.60;;;;;;5098952;28;20574;-79
2023/07/10 12:55:45;;;;;;;4.03;2.87;;;30.20;32.60;;;;;;5104297;28;20957;-79
2023/07/10 12:58:15;;;;;;;4.23;3.83;;;30.10;32.20;;;;;;5096317;28;20450;-81
2023/07/10 13:00:48;;;;;;;3.37;3.17;;;30.10;32.20;;;;;;5100263;28;20980;-79